createdAt,value
2022-11-21T00:01:02.308Z,1.00
2022-11-21T00:03:31.350Z,1.00
2022-11-21T00:05:58.081Z,99.90
2022-11-21T00:08:25.865Z,1.00
2022-11-21T00:11:01.393Z,38.00
2022-11-21T00:13:28.174Z,99.90
2022-11-21T00:15:57.426Z,99.90
2022-11-21T00:18:24.343Z,99.90
2022-11-21T00:20:51.012Z,99.90
2022-11-21T00:23:17.861Z,99.90
2022-11-21T00:25:44.577Z,99.90
2022-11-21T00:28:11.205Z,99.90
2022-11-21T00:30:40.930Z,99.90
2022-11-21T00:33:07.754Z,99.90
2022-11-21T00:35:34.543Z,1.00
2022-11-21T00:38:01.269Z,1.00
2022-11-21T00:40:28.043Z,1.00
2022-11-21T00:42:54.802Z,1.00
2022-11-21T00:45:24.470Z,1.00
2022-11-21T00:47:51.454Z,1.00
2022-11-21T00:50:18.284Z,1.00
2022-11-21T00:52:45.029Z,1.00
2022-11-21T00:55:11.705Z,1.00
2022-11-21T00:57:38.431Z,1.00
2022-11-21T01:00:07.216Z,1.00
2022-11-21T01:02:34.039Z,1.00
2022-11-21T01:05:00.730Z,1.00
2022-11-21T01:07:30.332Z,1.00
2022-11-21T01:10:00.087Z,1.00
2022-11-21T01:12:26.944Z,1.00
2022-11-21T01:14:53.654Z,1.00
2022-11-21T01:17:20.346Z,1.00
2022-11-21T01:19:50.277Z,21.50
2022-11-21T01:22:16.987Z,29.80
2022-11-21T01:24:43.849Z,59.60
2022-11-21T01:27:10.552Z,93.40
2022-11-21T01:29:37.214Z,99.70
2022-11-21T01:32:04.060Z,99.90
2022-11-21T01:34:30.740Z,99.90
2022-11-21T01:37:01.294Z,99.90
2022-11-21T01:39:28.097Z,98.10
2022-11-21T01:41:57.633Z,95.90
2022-11-21T01:44:27.318Z,97.30
2022-11-21T01:46:54.473Z,99.20
2022-11-21T01:49:28.723Z,99.90
2022-11-21T01:52:03.494Z,99.90
2022-11-21T01:54:47.911Z,99.90
2022-11-21T01:57:32.337Z,99.90
2022-11-21T02:00:12.862Z,99.90
2022-11-21T02:03:03.616Z,99.90
2022-11-21T02:05:33.077Z,99.90
2022-11-21T02:08:05.353Z,99.90
2022-11-21T02:10:36.707Z,99.90
2022-11-21T02:13:03.525Z,99.90
2022-11-21T02:15:30.339Z,99.90
2022-11-21T02:17:57.099Z,99.90
2022-11-21T02:20:26.659Z,1.00
2022-11-21T02:23:17.442Z,1.00
2022-11-21T02:25:44.606Z,1.00
2022-11-21T02:28:16.482Z,1.00
2022-11-21T02:30:43.825Z,1.00
2022-11-21T02:33:11.852Z,1.00
2022-11-21T02:35:39.478Z,1.00
2022-11-21T02:38:23.902Z,1.00
2022-11-21T02:41:14.796Z,1.00
2022-11-21T02:44:06.628Z,1.00
2022-11-21T02:46:35.573Z,1.00
2022-11-21T02:49:08.270Z,1.00
2022-11-21T02:51:35.009Z,1.00
2022-11-21T02:54:01.944Z,1.00
2022-11-21T02:56:29.133Z,1.00
2022-11-21T02:58:56.161Z,1.00
2022-11-21T03:01:22.916Z,1.00
2022-11-21T03:03:49.636Z,1.00
2022-11-21T03:06:16.340Z,1.00
2022-11-21T03:08:43.023Z,1.00
2022-11-21T03:11:09.690Z,1.00
2022-11-21T03:13:36.392Z,1.00
2022-11-21T03:16:03.194Z,1.00
2022-11-21T03:18:29.977Z,1.00
2022-11-21T03:20:57.929Z,1.00
2022-11-21T03:23:24.635Z,1.00
2022-11-21T03:25:51.291Z,1.00
2022-11-21T03:28:17.996Z,1.00
2022-11-21T03:30:44.711Z,1.00
2022-11-21T03:33:11.409Z,1.00
2022-11-21T03:35:38.066Z,1.00
2022-11-21T03:38:04.815Z,1.00
2022-11-21T03:40:31.598Z,1.00
2022-11-21T03:43:04.859Z,1.00
2022-11-21T03:45:31.822Z,1.00
2022-11-21T03:47:58.504Z,1.00
2022-11-21T03:50:25.207Z,1.00
2022-11-21T03:52:51.862Z,1.00
2022-11-21T03:55:18.579Z,1.00
2022-11-21T03:57:45.245Z,1.00
2022-11-21T04:00:12.837Z,1.00
2022-11-21T04:02:39.526Z,1.00
2022-11-21T04:05:06.366Z,1.00
2022-11-21T04:07:33.164Z,1.00
2022-11-21T04:10:00.144Z,1.00
2022-11-21T04:12:26.820Z,1.00
2022-11-21T04:14:53.691Z,1.00
2022-11-21T04:17:20.362Z,1.00
2022-11-21T04:19:50.047Z,1.00
2022-11-21T04:22:16.729Z,1.00
2022-11-21T04:24:43.448Z,1.00
2022-11-21T04:27:10.208Z,1.00
2022-11-21T04:29:36.981Z,1.00
2022-11-21T04:32:03.767Z,1.00
2022-11-21T04:34:30.865Z,1.00
2022-11-21T04:36:57.777Z,1.00
2022-11-21T04:39:24.492Z,1.00
2022-11-21T04:41:54.249Z,1.00
2022-11-21T04:44:20.909Z,1.00
2022-11-21T04:46:47.530Z,1.00
2022-11-21T04:49:14.578Z,1.00
2022-11-21T04:51:41.295Z,1.00
2022-11-21T04:54:08.165Z,1.00
2022-11-21T04:56:34.937Z,1.00
2022-11-21T04:59:01.569Z,1.00
2022-11-21T05:01:28.234Z,1.00
2022-11-21T05:03:55.035Z,1.00
2022-11-21T05:06:21.718Z,1.00
2022-11-21T05:08:52.721Z,1.00
2022-11-21T05:11:39.875Z,1.00
2022-11-21T05:14:06.583Z,1.00
2022-11-21T05:16:34.004Z,1.00
2022-11-21T05:19:00.990Z,27.30
2022-11-21T05:21:27.684Z,96.30
2022-11-21T05:23:54.406Z,99.90
2022-11-21T05:26:21.134Z,99.90
2022-11-21T05:28:48.565Z,99.90
2022-11-21T05:31:19.266Z,99.90
2022-11-21T05:33:46.293Z,99.90
2022-11-21T05:36:12.980Z,99.90
2022-11-21T05:38:39.698Z,99.90
2022-11-21T05:41:09.519Z,99.90
2022-11-21T05:43:48.971Z,99.90
2022-11-21T05:46:20.546Z,99.90
2022-11-21T05:48:48.604Z,99.90
2022-11-21T05:51:16.796Z,99.90
2022-11-21T05:53:44.277Z,99.90
2022-11-21T05:56:13.138Z,99.90
2022-11-21T05:58:40.254Z,99.90
2022-11-21T06:01:08.859Z,99.90
2022-11-21T06:03:38.653Z,99.90
2022-11-21T06:06:19.656Z,99.90
2022-11-21T06:08:49.065Z,99.90
2022-11-21T06:11:17.132Z,99.90
2022-11-21T06:13:44.349Z,99.90
2022-11-21T06:16:19.674Z,99.90
2022-11-21T06:18:50.051Z,99.90
2022-11-21T06:21:23.572Z,99.90
2022-11-21T06:23:57.484Z,99.90
2022-11-21T06:26:26.385Z,99.90
2022-11-21T06:28:53.124Z,99.90
2022-11-21T06:31:25.524Z,99.90
2022-11-21T06:33:54.654Z,99.90
2022-11-21T06:36:21.827Z,99.90
2022-11-21T06:38:48.741Z,99.90
2022-11-21T06:41:32.065Z,99.90
2022-11-21T06:44:01.982Z,99.90
2022-11-21T06:46:28.984Z,99.90
2022-11-21T06:48:58.461Z,99.90
2022-11-21T06:51:26.028Z,99.90
2022-11-21T06:53:58.102Z,99.90
2022-11-21T06:56:26.125Z,99.90
2022-11-21T06:58:53.165Z,99.90
2022-11-21T07:01:20.187Z,99.90
2022-11-21T07:03:47.138Z,99.90
2022-11-21T07:06:14.047Z,99.90
2022-11-21T07:08:41.200Z,99.90
2022-11-21T07:11:24.464Z,99.90
2022-11-21T07:13:52.007Z,99.90
2022-11-21T07:16:19.755Z,99.90
2022-11-21T07:18:46.422Z,99.90
2022-11-21T07:21:13.214Z,99.90
2022-11-21T07:23:39.890Z,99.90
2022-11-21T07:26:08.575Z,99.90
2022-11-21T07:28:38.172Z,99.90
2022-11-21T07:31:12.954Z,99.90
2022-11-21T07:33:40.421Z,99.90
2022-11-21T07:36:10.286Z,99.90
2022-11-21T07:38:36.946Z,99.90
2022-11-21T07:41:03.910Z,99.90
2022-11-21T07:43:30.601Z,99.90
2022-11-21T07:45:57.276Z,99.90
2022-11-21T07:48:24.021Z,99.90
2022-11-21T07:50:50.651Z,99.90
2022-11-21T07:53:20.134Z,99.90
2022-11-21T07:55:46.829Z,99.90
2022-11-21T07:58:16.590Z,99.90
2022-11-21T08:00:43.585Z,99.90
2022-11-21T08:03:14.573Z,99.90
2022-11-21T08:05:43.852Z,99.90
2022-11-21T08:08:14.061Z,99.90
2022-11-21T08:10:47.306Z,99.90
2022-11-21T08:13:16.886Z,99.90
2022-11-21T08:15:43.562Z,99.90
2022-11-21T08:18:15.088Z,99.90
2022-11-21T08:20:42.707Z,99.90
2022-11-21T08:23:10.264Z,99.90
2022-11-21T08:25:38.527Z,99.90
2022-11-21T08:28:06.507Z,99.90
2022-11-21T08:30:34.764Z,99.90
2022-11-21T08:33:01.983Z,99.90
2022-11-21T08:35:29.094Z,99.90
2022-11-21T08:37:59.197Z,99.90
2022-11-21T08:40:30.318Z,99.90
2022-11-21T08:43:08.231Z,99.90
2022-11-21T08:45:37.054Z,99.90
2022-11-21T08:48:04.390Z,99.90
2022-11-21T08:50:32.037Z,99.90
2022-11-21T08:53:03.291Z,99.90
2022-11-21T08:55:31.000Z,99.90
2022-11-21T08:57:58.238Z,99.90
2022-11-21T09:00:25.292Z,99.90
2022-11-21T09:02:51.941Z,99.90
2022-11-21T09:05:18.579Z,99.90
2022-11-21T09:07:45.292Z,99.90
2022-11-21T09:10:12.212Z,99.90
2022-11-21T09:12:38.960Z,99.90
2022-11-21T09:15:25.111Z,99.90
2022-11-21T09:18:03.413Z,99.90
2022-11-21T09:20:37.975Z,99.90
2022-11-21T09:23:09.181Z,99.90
2022-11-21T09:25:36.310Z,99.90
2022-11-21T09:28:04.795Z,99.90
2022-11-21T09:30:31.544Z,99.90
2022-11-21T09:33:02.235Z,99.90
2022-11-21T09:35:33.115Z,99.90
2022-11-21T09:38:00.524Z,99.90
2022-11-21T09:40:30.332Z,99.90
2022-11-21T09:42:59.724Z,99.90
2022-11-21T09:45:46.982Z,99.90
2022-11-21T09:48:22.698Z,99.90
2022-11-21T09:50:57.602Z,99.90
2022-11-21T09:53:51.486Z,99.90
2022-11-21T09:56:23.312Z,99.90
2022-11-21T09:59:17.896Z,99.90
2022-11-21T10:01:44.694Z,99.90
2022-11-21T10:04:14.632Z,99.90
2022-11-21T10:07:06.107Z,99.90
2022-11-21T10:10:03.544Z,99.90
2022-11-21T10:12:40.345Z,99.90
2022-11-21T10:15:28.786Z,99.90
2022-11-21T10:18:27.939Z,99.90
2022-11-21T10:21:25.869Z,99.90
2022-11-21T10:24:06.175Z,99.90
2022-11-21T10:26:53.120Z,99.90
2022-11-21T10:29:22.033Z,99.90
2022-11-21T10:31:49.773Z,99.90
2022-11-21T10:34:21.452Z,99.90
2022-11-21T10:36:52.905Z,99.90
2022-11-21T10:39:46.491Z,99.90
2022-11-21T10:42:24.681Z,99.90
2022-11-21T10:45:10.908Z,99.90
2022-11-21T10:47:38.166Z,99.90
2022-11-21T10:50:10.866Z,99.90
2022-11-21T10:52:58.598Z,99.90
2022-11-21T10:55:25.342Z,99.90
2022-11-21T10:57:56.405Z,99.90
2022-11-21T11:00:29.829Z,99.90
2022-11-21T11:03:06.563Z,99.90
2022-11-21T11:05:37.773Z,99.90
2022-11-21T11:08:15.147Z,99.90
2022-11-21T11:11:01.597Z,99.90
2022-11-21T11:13:46.492Z,99.90
2022-11-21T11:16:19.352Z,99.90
2022-11-21T11:19:14.040Z,99.90
2022-11-21T11:21:46.841Z,99.90
2022-11-21T11:24:13.562Z,99.90
2022-11-21T11:26:49.714Z,99.90
2022-11-21T11:29:24.410Z,99.90
2022-11-21T11:32:01.311Z,99.90
2022-11-21T11:34:47.071Z,99.90
2022-11-21T11:37:40.766Z,99.90
2022-11-21T11:40:26.729Z,99.90
2022-11-21T11:43:34.014Z,99.90
2022-11-21T11:46:49.413Z,99.90
2022-11-21T11:49:24.629Z,99.90
2022-11-21T11:51:56.839Z,99.90
2022-11-21T11:54:47.409Z,99.90
2022-11-21T11:57:14.387Z,99.90
2022-11-21T11:59:47.553Z,99.90
2022-11-21T12:02:17.008Z,99.90
2022-11-21T12:05:04.849Z,99.90
2022-11-21T12:08:40.293Z,99.90
2022-11-21T12:11:06.448Z,99.90
2022-11-21T12:13:36.896Z,99.90
2022-11-21T12:16:13.067Z,99.90
2022-11-21T12:19:03.047Z,99.90
2022-11-21T12:21:29.844Z,99.90
2022-11-21T12:24:00.910Z,99.90
2022-11-21T12:26:39.107Z,99.90
2022-11-21T12:29:24.407Z,99.90
2022-11-21T12:31:59.762Z,99.90
2022-11-21T12:34:38.477Z,99.90
2022-11-21T12:37:23.755Z,99.90
2022-11-21T12:40:31.782Z,99.90
2022-11-21T12:43:20.378Z,99.90
2022-11-21T12:46:20.927Z,99.90
2022-11-21T12:49:15.064Z,99.90
2022-11-21T12:52:23.771Z,99.90
2022-11-21T12:55:13.350Z,99.90
2022-11-21T12:58:08.972Z,99.90
2022-11-21T13:00:56.586Z,99.90
2022-11-21T13:03:44.308Z,99.90
2022-11-21T13:06:28.533Z,99.90
2022-11-21T13:08:57.021Z,99.90
2022-11-21T13:11:58.861Z,99.90
2022-11-21T13:14:36.328Z,99.90
2022-11-21T13:17:20.855Z,99.90
2022-11-21T13:20:01.183Z,99.90
2022-11-21T13:22:41.904Z,99.90
2022-11-21T13:25:32.774Z,99.90
2022-11-21T13:28:12.042Z,99.90
2022-11-21T13:30:57.970Z,99.90
2022-11-21T13:33:39.753Z,99.90
2022-11-21T13:36:13.101Z,99.90
2022-11-21T13:38:54.774Z,99.90
2022-11-21T13:41:55.278Z,99.90
2022-11-21T13:44:31.428Z,99.90
2022-11-21T13:47:09.937Z,99.90
2022-11-21T13:49:40.065Z,99.90
2022-11-21T13:52:30.788Z,99.90
2022-11-21T13:55:30.891Z,99.90
2022-11-21T13:58:06.657Z,99.90
2022-11-21T14:00:42.922Z,99.90
2022-11-21T14:03:42.017Z,99.90
2022-11-21T14:06:08.724Z,99.90
2022-11-21T14:08:36.092Z,99.90
2022-11-21T14:11:21.235Z,99.90
2022-11-21T14:13:49.779Z,99.90
2022-11-21T14:16:36.735Z,99.90
2022-11-21T14:19:05.224Z,99.90
2022-11-21T14:21:33.775Z,99.90
2022-11-21T14:24:06.912Z,99.90
2022-11-21T14:26:43.472Z,99.90
2022-11-21T14:29:17.212Z,99.90
2022-11-21T14:31:48.342Z,99.90
2022-11-21T14:34:26.274Z,99.90
2022-11-21T14:36:54.582Z,99.90
2022-11-21T14:39:44.512Z,99.90
2022-11-21T14:42:16.253Z,99.90
2022-11-21T14:44:43.690Z,99.90
2022-11-21T14:47:26.555Z,99.90
2022-11-21T14:50:07.103Z,99.90
2022-11-21T14:52:34.440Z,99.90
2022-11-21T14:57:52.930Z,99.90
2022-11-21T15:00:57.438Z,99.90
2022-11-21T15:03:22.782Z,99.90
2022-11-21T15:11:35.985Z,99.90
2022-11-21T15:14:21.111Z,99.90
2022-11-21T15:16:51.274Z,99.90
2022-11-21T15:19:23.244Z,99.90
2022-11-21T15:21:52.582Z,99.90
2022-11-21T15:24:30.087Z,99.90
2022-11-21T15:26:57.386Z,99.90
2022-11-21T15:29:24.540Z,99.90
2022-11-21T15:32:16.575Z,99.90
2022-11-21T15:34:43.976Z,99.90
2022-11-21T15:37:18.344Z,99.90
2022-11-21T15:39:50.043Z,99.90
2022-11-21T15:42:32.548Z,99.90
2022-11-21T15:45:02.105Z,99.90
2022-11-21T15:47:31.390Z,99.90
2022-11-21T15:49:58.425Z,99.90
2022-11-21T15:52:25.242Z,99.90
2022-11-21T15:54:51.974Z,99.90
2022-11-21T15:57:15.690Z,99.90
2022-11-21T15:57:22.264Z,99.90
2022-11-21T15:59:49.745Z,99.90
2022-11-21T16:02:16.693Z,99.90
2022-11-21T16:04:43.607Z,99.90
2022-11-21T16:07:10.401Z,99.90
2022-11-21T16:09:38.576Z,99.90
2022-11-21T16:12:05.436Z,99.90
2022-11-21T16:14:32.087Z,99.90
2022-11-21T16:16:58.903Z,99.90
2022-11-21T16:19:25.932Z,99.90
2022-11-21T16:21:53.723Z,99.90
2022-11-21T16:24:23.421Z,99.90
2022-11-21T16:26:53.462Z,99.90
2022-11-21T16:29:20.326Z,99.90
2022-11-21T16:31:49.576Z,99.90
2022-11-21T16:34:20.109Z,99.90
2022-11-21T16:36:46.855Z,99.90
2022-11-21T16:39:18.024Z,99.90
2022-11-21T16:41:46.621Z,99.90
2022-11-21T16:44:15.195Z,99.90
2022-11-21T16:46:43.792Z,99.90
2022-11-21T16:49:10.712Z,99.90
2022-11-21T16:51:37.902Z,99.90
2022-11-21T16:54:08.784Z,99.90
2022-11-21T16:56:36.407Z,99.90
2022-11-21T16:59:05.133Z,99.90
2022-11-21T17:01:31.927Z,99.90
2022-11-21T17:03:59.048Z,99.90
2022-11-21T17:06:30.070Z,99.90
2022-11-21T17:08:58.857Z,99.90
2022-11-21T17:11:28.964Z,99.90
2022-11-21T17:13:56.745Z,99.90
2022-11-21T17:16:23.972Z,99.90
2022-11-21T17:18:55.542Z,99.90
2022-11-21T17:21:23.163Z,99.90
2022-11-21T17:23:50.534Z,99.90
2022-11-21T17:26:20.269Z,99.90
2022-11-21T17:28:57.852Z,99.90
2022-11-21T17:31:25.326Z,99.90
2022-11-21T17:33:52.353Z,99.90
2022-11-21T17:36:21.953Z,99.90
2022-11-21T17:38:48.972Z,99.90
2022-11-21T17:41:18.138Z,99.90
2022-11-21T17:43:47.100Z,99.90
2022-11-21T17:46:19.108Z,99.90
2022-11-21T17:48:54.310Z,99.90
2022-11-21T17:51:24.381Z,99.90
2022-11-21T17:53:52.414Z,99.90
2022-11-21T17:56:23.977Z,99.90
2022-11-21T17:58:51.662Z,99.90
2022-11-21T18:01:19.675Z,99.90
2022-11-21T18:03:55.290Z,99.90
2022-11-21T18:06:22.101Z,99.90
2022-11-21T18:08:49.202Z,99.90
2022-11-21T18:11:19.303Z,99.90
2022-11-21T18:13:48.086Z,99.90
2022-11-21T18:16:19.162Z,99.90
2022-11-21T18:18:49.769Z,99.90
2022-11-21T18:21:30.297Z,99.90
2022-11-21T18:23:57.917Z,99.90
2022-11-21T18:26:27.869Z,99.90
2022-11-21T18:29:13.549Z,99.90
2022-11-21T18:31:43.990Z,99.90
2022-11-21T18:34:12.117Z,99.90
2022-11-21T18:36:38.815Z,99.90
2022-11-21T18:39:12.346Z,99.90
2022-11-21T18:41:41.661Z,99.90
2022-11-21T18:44:08.331Z,99.90
2022-11-21T18:46:37.445Z,99.90
2022-11-21T18:49:07.298Z,99.90
2022-11-21T18:51:35.391Z,99.90
2022-11-21T18:54:07.187Z,99.90
2022-11-21T18:56:35.224Z,99.90
2022-11-21T18:59:03.384Z,99.90
2022-11-21T19:01:30.485Z,99.90
2022-11-21T19:03:58.276Z,99.90
2022-11-21T19:06:26.200Z,99.90
2022-11-21T19:08:56.454Z,99.90
2022-11-21T19:11:25.928Z,99.90
2022-11-21T19:13:54.904Z,99.90
2022-11-21T19:16:26.890Z,99.90
2022-11-21T19:21:41.878Z,99.90
2022-11-21T19:24:13.214Z,99.90
2022-11-21T19:26:40.276Z,99.90
2022-11-21T19:29:07.150Z,99.90
2022-11-21T19:31:37.732Z,99.90
2022-11-21T19:34:07.575Z,99.90
2022-11-21T19:36:44.659Z,99.90
2022-11-21T19:39:11.576Z,99.90
2022-11-21T19:41:38.358Z,99.90
2022-11-21T19:44:05.230Z,99.90
2022-11-21T19:46:37.028Z,99.90
2022-11-21T19:49:05.653Z,99.90
2022-11-21T19:51:37.455Z,99.90
2022-11-21T19:54:05.595Z,99.90
2022-11-21T19:56:32.725Z,99.90
2022-11-21T19:58:59.550Z,99.90
2022-11-21T20:01:28.623Z,99.90
2022-11-21T20:04:00.192Z,99.90
2022-11-21T20:06:30.647Z,99.90
2022-11-21T20:08:58.568Z,99.90
2022-11-21T20:11:26.424Z,99.90
2022-11-21T20:13:53.212Z,99.90
2022-11-21T20:16:27.529Z,99.90
2022-11-21T20:18:59.302Z,99.90
2022-11-21T20:21:26.377Z,99.90
2022-11-21T20:23:53.195Z,99.90
2022-11-21T20:26:21.731Z,99.90
2022-11-21T20:28:49.352Z,99.90
2022-11-21T20:31:17.163Z,99.90
2022-11-21T20:33:46.631Z,99.90
2022-11-21T20:36:19.469Z,99.90
2022-11-21T20:38:53.830Z,99.90
2022-11-21T20:41:21.974Z,99.90
2022-11-21T20:44:41.843Z,99.90
2022-11-21T20:46:39.927Z,99.90
2022-11-21T20:49:06.712Z,99.90
2022-11-21T20:54:23.603Z,99.90
2022-11-21T20:56:50.332Z,99.90
2022-11-21T20:59:17.014Z,99.90
2022-11-21T21:01:46.756Z,99.90
2022-11-21T21:04:13.628Z,99.90
2022-11-21T21:06:40.335Z,99.90
2022-11-21T21:09:07.078Z,99.90
2022-11-21T21:14:26.679Z,99.90
2022-11-21T21:16:53.361Z,99.90
2022-11-21T21:19:27.829Z,99.90
2022-11-21T21:21:54.751Z,99.90
2022-11-21T21:24:21.741Z,99.90
2022-11-21T21:26:49.406Z,99.90
2022-11-21T21:29:19.391Z,99.90
2022-11-21T21:31:51.140Z,99.90
2022-11-21T21:34:20.180Z,1.00
2022-11-21T21:36:47.141Z,99.90
2022-11-21T21:39:14.251Z,1.00
2022-11-21T21:41:44.400Z,1.00
2022-11-21T21:44:11.468Z,1.00
2022-11-21T21:46:38.123Z,99.90
2022-11-21T21:49:04.790Z,99.90
2022-11-21T21:51:32.284Z,99.90
2022-11-21T21:53:59.851Z,99.90
2022-11-21T21:56:30.669Z,99.90
2022-11-21T21:58:58.333Z,99.90
2022-11-21T22:01:27.951Z,99.90
2022-11-21T22:03:59.593Z,99.90
2022-11-21T22:06:27.158Z,99.90
2022-11-21T22:08:54.649Z,99.90
2022-11-21T22:11:23.676Z,99.90
2022-11-21T22:13:56.078Z,99.90
2022-11-21T22:16:23.147Z,1.00
2022-11-21T22:18:50.159Z,1.00
2022-11-21T22:21:18.064Z,1.00
2022-11-21T22:24:17.226Z,1.00
2022-11-21T22:26:35.176Z,1.00
2022-11-21T22:29:02.012Z,1.00
2022-11-21T22:31:31.401Z,1.00
2022-11-21T22:33:58.693Z,1.00
2022-11-21T22:36:25.832Z,1.00
2022-11-21T22:38:56.535Z,1.00
2022-11-21T22:41:27.480Z,1.00
2022-11-21T22:43:57.157Z,1.00
2022-11-21T22:46:25.268Z,1.00
2022-11-21T22:48:52.205Z,1.00
2022-11-21T22:51:22.016Z,1.00
2022-11-21T22:53:49.689Z,1.00
2022-11-21T22:56:19.154Z,1.00
2022-11-21T22:58:46.686Z,1.00
2022-11-21T23:01:15.847Z,1.00
2022-11-21T23:03:43.628Z,1.00
2022-11-21T23:06:12.757Z,1.00
2022-11-21T23:08:41.267Z,1.00
2022-11-21T23:11:19.125Z,1.00
2022-11-21T23:13:47.820Z,23.20
2022-11-21T23:16:16.199Z,53.20
2022-11-21T23:18:43.078Z,77.40
2022-11-21T23:21:11.817Z,99.90
2022-11-21T23:23:38.705Z,99.90
2022-11-21T23:26:06.282Z,99.90
2022-11-21T23:28:33.724Z,99.90
2022-11-21T23:31:00.834Z,99.90
2022-11-21T23:33:27.535Z,99.90
2022-11-21T23:35:54.260Z,99.90
2022-11-21T23:38:21.890Z,99.90
2022-11-21T23:40:49.604Z,99.90
2022-11-21T23:43:19.197Z,99.90
2022-11-21T23:45:50.773Z,99.90
2022-11-21T23:48:18.033Z,99.90
2022-11-21T23:50:46.232Z,99.90
2022-11-21T23:53:13.453Z,99.90
2022-11-21T23:55:40.286Z,99.90
2022-11-21T23:58:06.948Z,99.70
